Time;durP1;ratioP1;P1;durP2;ratioP2;P2;SDS_P1;SDS_P2;PMS_P1;PMS_P2;Temp;Humidity;BMP_temperature;BMP_pressure;BME280_temperature;BME280_humidity;BME280_pressure;Samples;Min_cycle;Max_cycle;Signal;HPM_P1;HPM_P2
2021/03/28 00:01:33;;;;;;;;;12.75;12.75;;;;;;;;5065563;28;10998;-75
2021/03/28 00:04:02;;;;;;;;;10.00;10.00;;;;;;;;5084217;28;11587;-75
2021/03/28 00:06:32;;;;;;;;;8.75;6.50;;;;;;;;5083601;28;11670;-76
2021/03/28 00:09:21;;;;;;;;;15.25;11.00;;;;;;;;5083639;28;11528;-77
2021/03/28 00:12:00;;;;;;;;;13.00;13.00;;;;;;;;5082867;28;11540;-78
2021/03/28 00:14:40;;;;;;;;;8.50;8.25;;;;;;;;5081736;28;11599;-76
2021/03/28 00:17:08;;;;;;;;;14.00;9.75;;;;;;;;5093634;28;11653;-77
2021/03/28 00:19:37;;;;;;;;;12.75;10.50;;;;;;;;5083454;28;11509;-77
2021/03/28 00:22:11;;;;;;;;;15.00;13.00;;;;;;;;5084319;28;11701;-76
2021/03/28 00:24:41;;;;;;;;;12.75;9.75;;;;;;;;5083695;28;11605;-77
2021/03/28 00:27:14;;;;;;;;;9.25;6.50;;;;;;;;5083306;28;12372;-76
2021/03/28 00:29:49;;;;;;;;;10.00;8.00;;;;;;;;5084038;28;11710;-76
2021/03/28 00:32:24;;;;;;;;;7.75;7.75;;;;;;;;5081740;27;11569;-76
2021/03/28 00:34:54;;;;;;;;;9.75;9.50;;;;;;;;5082890;28;11557;-80
2021/03/28 00:37:26;;;;;;;;;16.00;12.00;;;;;;;;5079640;28;11520;-82
2021/03/28 00:39:55;;;;;;;;;7.00;7.00;;;;;;;;5083209;28;11575;-77
2021/03/28 00:42:33;;;;;;;;;8.50;7.25;;;;;;;;5084196;28;12340;-79
2021/03/28 00:45:13;;;;;;;;;9.75;9.00;;;;;;;;5079967;28;11745;-81
2021/03/28 00:47:42;;;;;;;;;7.00;7.00;;;;;;;;5085746;28;11512;-80
2021/03/28 00:50:18;;;;;;;;;11.00;11.00;;;;;;;;5080773;28;11472;-79
2021/03/28 00:52:52;;;;;;;;;9.25;9.25;;;;;;;;5078917;28;11635;-80
2021/03/28 00:55:22;;;;;;;;;10.00;10.00;;;;;;;;5083250;28;11462;-79
2021/03/28 00:58:10;;;;;;;;;12.50;12.00;;;;;;;;5082689;28;11504;-80
2021/03/28 01:01:16;;;;;;;;;8.25;5.00;;;;;;;;5077878;27;11554;-79
2021/03/28 01:03:57;;;;;;;;;11.00;11.00;;;;;;;;5007979;28;11662;-81
2021/03/28 01:06:32;;;;;;;;;11.00;11.00;;;;;;;;5072941;28;11504;-79
2021/03/28 01:09:06;;;;;;;;;12.75;11.00;;;;;;;;5081513;28;11478;-81
2021/03/28 01:12:04;;;;;;;;;15.25;12.25;;;;;;;;5082580;28;11551;-80
2021/03/28 01:14:41;;;;;;;;;11.50;11.50;;;;;;;;5056371;28;11626;-80
2021/03/28 01:17:32;;;;;;;;;10.50;8.00;;;;;;;;5084546;28;11480;-79
2021/03/28 01:20:13;;;;;;;;;8.50;7.75;;;;;;;;5081499;28;11456;-80
2021/03/28 01:22:46;;;;;;;;;7.50;7.50;;;;;;;;5082925;28;11442;-80
2021/03/28 01:25:32;;;;;;;;;10.50;8.75;;;;;;;;5081520;28;11495;-79
2021/03/28 01:28:05;;;;;;;;;8.50;6.00;;;;;;;;5082330;28;11552;-79
2021/03/28 01:30:52;;;;;;;;;9.75;7.00;;;;;;;;5080555;28;11370;-79
2021/03/28 01:33:24;;;;;;;;;10.00;7.25;;;;;;;;5078889;28;11416;-80
2021/03/28 01:36:00;;;;;;;;;6.50;6.50;;;;;;;;5090744;28;11455;-80
2021/03/28 01:38:32;;;;;;;;;8.00;8.00;;;;;;;;5081737;28;11437;-78
2021/03/28 01:41:02;;;;;;;;;9.00;7.75;;;;;;;;5081918;28;11468;-79
2021/03/28 01:43:41;;;;;;;;;11.25;10.00;;;;;;;;5083401;28;11475;-79
2021/03/28 01:46:14;;;;;;;;;10.00;7.25;;;;;;;;5081374;28;11558;-81
2021/03/28 01:48:45;;;;;;;;;10.00;9.00;;;;;;;;5082956;28;11559;-81
2021/03/28 01:51:44;;;;;;;;;8.00;8.00;;;;;;;;5082826;28;11583;-81
2021/03/28 01:54:16;;;;;;;;;7.75;7.75;;;;;;;;5083053;28;11486;-81
2021/03/28 01:56:50;;;;;;;;;11.00;9.00;;;;;;;;5084599;28;11549;-81
2021/03/28 01:59:27;;;;;;;;;8.00;8.00;;;;;;;;5081144;28;11559;-81
2021/03/28 02:01:59;;;;;;;;;7.25;7.25;;;;;;;;5086304;28;11485;-80
2021/03/28 02:04:41;;;;;;;;;12.00;6.25;;;;;;;;5086429;28;11449;-81
2021/03/28 02:07:36;;;;;;;;;7.00;6.00;;;;;;;;5084215;28;11583;-79
2021/03/28 02:10:13;;;;;;;;;9.50;9.00;;;;;;;;5070303;28;11457;-78
2021/03/28 02:12:45;;;;;;;;;11.25;7.75;;;;;;;;5085811;28;11642;-80
2021/03/28 02:15:34;;;;;;;;;2.50;2.50;;;;;;;;5092480;28;11567;-81
2021/03/28 02:18:14;;;;;;;;;7.00;7.00;;;;;;;;5086740;28;11215;-81
2021/03/28 02:20:48;;;;;;;;;8.50;6.00;;;;;;;;5087273;28;11450;-82
2021/03/28 02:23:39;;;;;;;;;11.50;7.75;;;;;;;;5087640;28;11441;-82
2021/03/28 02:26:18;;;;;;;;;11.00;10.00;;;;;;;;5085851;28;11583;-82
2021/03/28 02:28:54;;;;;;;;;7.25;7.25;;;;;;;;5085597;28;11465;-81
2021/03/28 02:31:29;;;;;;;;;9.50;7.00;;;;;;;;5085380;28;11521;-80
2021/03/28 02:34:01;;;;;;;;;10.75;7.75;;;;;;;;5089516;28;11591;-81
2021/03/28 02:36:37;;;;;;;;;11.00;9.00;;;;;;;;5092305;28;11468;-82
2021/03/28 02:39:15;;;;;;;;;10.25;10.25;;;;;;;;5085217;28;11592;-79
2021/03/28 02:42:04;;;;;;;;;6.75;3.00;;;;;;;;5085968;28;11548;-80
2021/03/28 02:44:39;;;;;;;;;6.25;6.25;;;;;;;;5087089;28;11457;-81
2021/03/28 02:47:20;;;;;;;;;9.00;9.00;;;;;;;;5085220;28;11598;-80
2021/03/28 02:50:00;;;;;;;;;6.75;6.75;;;;;;;;5086544;28;12214;-80
2021/03/28 02:52:44;;;;;;;;;9.25;9.25;;;;;;;;5084860;28;12227;-80
2021/03/28 02:55:38;;;;;;;;;5.00;5.00;;;;;;;;5085342;28;11463;-80
2021/03/28 02:58:21;;;;;;;;;6.00;6.00;;;;;;;;5089735;28;11497;-80
2021/03/28 03:01:01;;;;;;;;;6.25;6.25;;;;;;;;5082806;28;11618;-81
2021/03/28 03:03:55;;;;;;;;;7.00;7.00;;;;;;;;5083964;28;11482;-80
2021/03/28 03:06:52;;;;;;;;;9.00;9.00;;;;;;;;5086257;28;11518;-80
2021/03/28 03:09:27;;;;;;;;;9.75;7.00;;;;;;;;5083771;28;11595;-80
2021/03/28 03:12:11;;;;;;;;;5.25;5.25;;;;;;;;5085990;28;11473;-82
2021/03/28 03:14:51;;;;;;;;;7.75;7.00;;;;;;;;5085201;28;11499;-79
2021/03/28 03:17:45;;;;;;;;;5.00;5.00;;;;;;;;5088468;28;12437;-80
2021/03/28 03:21:02;;;;;;;;;5.00;5.00;;;;;;;;5085677;28;11558;-79
2021/03/28 03:24:05;;;;;;;;;6.25;6.00;;;;;;;;5083868;28;11605;-79
2021/03/28 03:27:11;;;;;;;;;7.50;6.00;;;;;;;;5082516;28;11616;-79
2021/03/28 03:30:05;;;;;;;;;8.00;6.00;;;;;;;;5083449;28;11587;-79
2021/03/28 03:32:57;;;;;;;;;7.25;6.00;;;;;;;;5085055;28;12236;-79
2021/03/28 03:35:35;;;;;;;;;9.75;7.25;;;;;;;;5084354;28;11474;-78
2021/03/28 03:38:19;;;;;;;;;6.75;5.75;;;;;;;;5079313;28;11531;-80
2021/03/28 03:41:03;;;;;;;;;7.00;5.00;;;;;;;;5080536;28;11559;-80
2021/03/28 03:43:49;;;;;;;;;7.00;2.50;;;;;;;;5083970;28;11577;-78
2021/03/28 03:46:28;;;;;;;;;6.75;6.00;;;;;;;;5075017;28;11452;-79
2021/03/28 03:49:30;;;;;;;;;9.25;7.00;;;;;;;;5088628;28;11457;-80
2021/03/28 03:52:20;;;;;;;;;2.75;2.75;;;;;;;;5056458;28;12330;-78
2021/03/28 03:54:56;;;;;;;;;6.00;6.00;;;;;;;;5084144;28;11466;-79
2021/03/28 03:57:39;;;;;;;;;5.00;5.00;;;;;;;;5083340;28;12234;-79
2021/03/28 04:00:14;;;;;;;;;6.50;5.75;;;;;;;;5083606;27;11493;-79
2021/03/28 04:02:51;;;;;;;;;7.00;5.00;;;;;;;;5084937;28;11453;-79
2021/03/28 04:05:43;;;;;;;;;3.00;3.00;;;;;;;;5082894;28;11964;-77
2021/03/28 04:08:41;;;;;;;;;4.75;4.75;;;;;;;;5083233;28;11462;-79
2021/03/28 04:11:32;;;;;;;;;4.50;4.50;;;;;;;;5078994;28;11446;-79
2021/03/28 04:14:16;;;;;;;;;3.50;3.50;;;;;;;;5084483;28;11448;-80
2021/03/28 04:16:59;;;;;;;;;4.25;2.00;;;;;;;;5084327;28;11476;-79
2021/03/28 04:19:36;;;;;;;;;4.50;4.50;;;;;;;;5081710;28;11486;-79
2021/03/28 04:22:26;;;;;;;;;5.50;5.25;;;;;;;;5081314;28;11686;-79
2021/03/28 04:25:03;;;;;;;;;7.25;6.75;;;;;;;;5084149;28;11660;-79
2021/03/28 04:27:43;;;;;;;;;5.00;5.00;;;;;;;;5082479;28;11521;-79
2021/03/28 04:30:30;;;;;;;;;8.75;3.75;;;;;;;;5084557;27;11533;-79
2021/03/28 04:33:04;;;;;;;;;8.00;5.50;;;;;;;;5078757;28;11524;-79
2021/03/28 04:35:42;;;;;;;;;10.00;4.00;;;;;;;;5083008;28;11517;-81
2021/03/28 04:38:22;;;;;;;;;5.00;5.00;;;;;;;;5080039;28;11634;-80
2021/03/28 04:41:25;;;;;;;;;7.50;5.00;;;;;;;;5083891;28;11521;-78
2021/03/28 04:44:37;;;;;;;;;4.75;4.75;;;;;;;;5062716;28;11475;-79
2021/03/28 04:47:45;;;;;;;;;3.50;1.50;;;;;;;;5020220;28;11724;-79
2021/03/28 04:50:39;;;;;;;;;3.00;3.00;;;;;;;;5017774;28;11526;-79
2021/03/28 04:53:51;;;;;;;;;4.25;4.25;;;;;;;;5070842;28;11544;-80
2021/03/28 04:57:10;;;;;;;;;1.25;1.25;;;;;;;;5032229;28;11538;-82
2021/03/28 04:59:57;;;;;;;;;3.50;3.50;;;;;;;;5038244;28;11530;-80
2021/03/28 05:02:30;;;;;;;;;2.00;2.00;;;;;;;;5077516;28;11489;-80
2021/03/28 05:05:39;;;;;;;;;5.25;3.00;;;;;;;;5083316;28;11656;-81
2021/03/28 05:08:25;;;;;;;;;4.00;4.00;;;;;;;;5083274;28;11491;-80
2021/03/28 05:11:15;;;;;;;;;4.50;4.00;;;;;;;;5074465;28;11546;-81
2021/03/28 05:14:05;;;;;;;;;4.25;4.25;;;;;;;;5084030;28;11527;-80
2021/03/28 05:17:11;;;;;;;;;5.00;5.00;;;;;;;;5075630;28;11532;-80
2021/03/28 05:20:15;;;;;;;;;4.50;4.50;;;;;;;;5076472;28;11596;-81
2021/03/28 05:23:18;;;;;;;;;9.50;9.50;;;;;;;;5081151;28;11495;-80
2021/03/28 05:26:30;;;;;;;;;7.25;5.00;;;;;;;;5083864;28;11500;-81
2021/03/28 05:29:35;;;;;;;;;13.50;13.50;;;;;;;;5062321;28;11551;-81
2021/03/28 05:32:43;;;;;;;;;13.75;11.50;;;;;;;;5080253;28;11600;-79
2021/03/28 05:35:43;;;;;;;;;20.00;20.00;;;;;;;;5081189;28;11591;-80
2021/03/28 05:38:48;;;;;;;;;17.00;17.00;;;;;;;;5080584;28;11660;-78
2021/03/28 05:41:38;;;;;;;;;39.25;36.75;;;;;;;;5078062;28;11692;-78
2021/03/28 05:44:47;;;;;;;;;24.00;20.50;;;;;;;;5076000;28;11583;-78
2021/03/28 05:47:40;;;;;;;;;67.67;53.00;;;;;;;;5082577;28;11677;-78
2021/03/28 05:50:23;;;;;;;;;77.00;59.00;;;;;;;;5080092;28;11706;-79
2021/03/28 05:53:30;;;;;;;;;71.00;59.33;;;;;;;;5083143;28;8887;-79
2021/03/28 05:56:30;;;;;;;;;91.67;68.67;;;;;;;;5081141;28;8975;-80
2021/03/28 05:59:25;;;;;;;;;105.00;86.00;;;;;;;;5081077;28;8860;-79
2021/03/28 06:02:28;;;;;;;;;113.67;94.67;;;;;;;;5078094;28;8808;-78
2021/03/28 06:05:26;;;;;;;;;126.67;104.33;;;;;;;;5038517;28;8972;-79
2021/03/28 06:08:27;;;;;;;;;119.67;104.67;;;;;;;;5074774;28;9663;-79
2021/03/28 06:11:27;;;;;;;;;91.67;69.00;;;;;;;;5047664;28;8872;-79
2021/03/28 06:14:30;;;;;;;;;87.00;67.33;;;;;;;;5080929;28;8879;-79
2021/03/28 06:17:18;;;;;;;;;90.33;65.00;;;;;;;;5078873;28;9753;-79
2021/03/28 06:20:17;;;;;;;;;80.00;64.67;;;;;;;;5080156;28;8864;-78
2021/03/28 06:23:26;;;;;;;;;74.00;60.67;;;;;;;;5080670;28;8880;-78
2021/03/28 06:26:33;;;;;;;;;81.67;63.33;;;;;;;;5075741;28;8872;-77
2021/03/28 06:29:39;;;;;;;;;84.00;63.00;;;;;;;;5019228;28;8900;-78
2021/03/28 06:32:42;;;;;;;;;70.50;55.00;;;;;;;;5077754;28;12990;-77
2021/03/28 06:35:49;;;;;;;;;61.75;50.00;;;;;;;;5081500;28;11623;-79
2021/03/28 06:38:30;;;;;;;;;58.00;49.00;;;;;;;;5027979;28;12415;-77
2021/03/28 06:41:25;;;;;;;;;33.75;32.50;;;;;;;;5083474;28;11580;-80
2021/03/28 06:44:29;;;;;;;;;28.00;27.50;;;;;;;;5075134;28;12473;-78
2021/03/28 06:47:17;;;;;;;;;39.00;31.00;;;;;;;;5083368;28;11563;-78
2021/03/28 06:50:06;;;;;;;;;17.25;17.00;;;;;;;;5078671;28;11568;-78
2021/03/28 06:53:15;;;;;;;;;13.00;12.25;;;;;;;;5086156;28;11856;-79
2021/03/28 06:55:43;;;;;;;;;11.50;9.50;;;;;;;;5084450;28;11548;-81
2021/03/28 06:58:33;;;;;;;;;8.50;8.50;;;;;;;;5085677;28;11657;-80
2021/03/28 07:01:34;;;;;;;;;7.25;7.25;;;;;;;;5083007;28;12294;-80
2021/03/28 07:04:35;;;;;;;;;9.25;9.00;;;;;;;;5084345;28;11453;-82
2021/03/28 07:07:16;;;;;;;;;7.25;7.25;;;;;;;;5078468;28;11463;-79
2021/03/28 07:10:07;;;;;;;;;6.00;6.00;;;;;;;;5073322;28;11482;-77
2021/03/28 07:13:08;;;;;;;;;8.50;8.50;;;;;;;;5084152;28;11447;-78
2021/03/28 07:15:51;;;;;;;;;6.25;6.25;;;;;;;;5086435;28;11424;-80
2021/03/28 07:18:39;;;;;;;;;7.00;7.00;;;;;;;;5091527;28;11464;-80
2021/03/28 07:21:34;;;;;;;;;8.50;8.50;;;;;;;;5085729;28;11441;-80
2021/03/28 07:24:48;;;;;;;;;10.50;7.00;;;;;;;;5084862;28;11544;-75
2021/03/28 07:27:43;;;;;;;;;8.00;8.00;;;;;;;;5082507;28;11485;-79
2021/03/28 07:31:02;;;;;;;;;8.00;8.00;;;;;;;;5078209;28;11573;-78
2021/03/28 07:34:04;;;;;;;;;14.25;8.00;;;;;;;;5039291;28;11470;-73
2021/03/28 07:36:44;;;;;;;;;9.00;9.00;;;;;;;;5034969;28;11517;-74
2021/03/28 07:39:30;;;;;;;;;10.75;7.25;;;;;;;;5062578;28;11486;-75
2021/03/28 07:42:22;;;;;;;;;5.00;5.00;;;;;;;;5087263;28;11524;-76
2021/03/28 07:45:18;;;;;;;;;10.50;10.00;;;;;;;;5084917;28;12001;-76
2021/03/28 07:48:38;;;;;;;;;9.00;9.00;;;;;;;;5085644;28;11623;-72
2021/03/28 07:51:30;;;;;;;;;6.25;6.00;;;;;;;;5077626;28;11546;-76
2021/03/28 07:54:40;;;;;;;;;9.50;9.50;;;;;;;;5034445;28;11350;-75
2021/03/28 07:57:44;;;;;;;;;8.25;6.75;;;;;;;;5076967;28;11483;-74
2021/03/28 08:00:51;;;;;;;;;11.75;10.00;;;;;;;;5081372;27;11119;-76
2021/03/28 08:04:02;;;;;;;;;6.25;6.25;;;;;;;;5021061;28;11191;-77
2021/03/28 08:06:51;;;;;;;;;10.00;8.00;;;;;;;;4962144;28;11026;-75
2021/03/28 08:09:41;;;;;;;;;7.25;7.00;;;;;;;;5073666;28;11204;-77
2021/03/28 08:12:30;;;;;;;;;6.00;6.00;;;;;;;;5084565;28;11111;-70
2021/03/28 08:15:40;;;;;;;;;8.50;7.00;;;;;;;;5078146;28;10962;-72
2021/03/28 08:18:28;;;;;;;;;7.00;7.00;;;;;;;;5029794;28;10867;-68
2021/03/28 08:21:27;;;;;;;;;7.00;5.50;;;;;;;;5087793;28;10892;-70
2021/03/28 08:24:27;;;;;;;;;7.75;6.00;;;;;;;;5072963;28;10819;-70
2021/03/28 08:27:28;;;;;;;;;8.50;7.25;;;;;;;;5084201;28;10765;-72
2021/03/28 08:30:15;;;;;;;;;10.25;6.00;;;;;;;;5085999;28;10787;-69
2021/03/28 08:33:10;;;;;;;;;7.25;5.50;;;;;;;;5080108;28;10659;-71
2021/03/28 08:36:01;;;;;;;;;6.50;5.50;;;;;;;;5082428;28;10631;-69
2021/03/28 08:38:55;;;;;;;;;3.00;3.00;;;;;;;;5082121;28;10233;-69
2021/03/28 08:41:48;;;;;;;;;3.00;3.00;;;;;;;;5084519;28;10022;-72
2021/03/28 08:44:50;;;;;;;;;8.75;3.00;;;;;;;;5082011;28;10219;-72
2021/03/28 08:47:58;;;;;;;;;6.00;5.50;;;;;;;;5083004;28;10078;-69
2021/03/28 08:50:36;;;;;;;;;8.50;7.25;;;;;;;;5071228;28;10234;-71
2021/03/28 08:53:44;;;;;;;;;6.00;6.00;;;;;;;;5081712;28;10328;-69
2021/03/28 08:56:32;;;;;;;;;3.00;3.00;;;;;;;;5048652;28;10114;-69
2021/03/28 08:59:11;;;;;;;;;1.00;1.00;;;;;;;;5082192;28;9955;-73
2021/03/28 09:01:47;;;;;;;;;6.00;2.00;;;;;;;;5066861;28;9672;-71
2021/03/28 09:04:23;;;;;;;;;2.50;1.00;;;;;;;;5062020;28;9729;-71
2021/03/28 09:07:04;;;;;;;;;1.00;1.00;;;;;;;;5061949;28;9465;-72
2021/03/28 09:09:41;;;;;;;;;3.00;1.00;;;;;;;;5061933;28;9469;-71
2021/03/28 09:12:21;;;;;;;;;2.00;2.00;;;;;;;;5051476;28;9483;-71
2021/03/28 09:15:20;;;;;;;;;2.33;1.00;;;;;;;;5064272;28;9330;-69
2021/03/28 09:17:59;;;;;;;;;2.00;2.00;;;;;;;;5063481;28;9212;-74
2021/03/28 09:20:32;;;;;;;;;1.00;1.00;;;;;;;;5061775;28;9108;-70
2021/03/28 09:23:17;;;;;;;;;3.00;2.00;;;;;;;;5063366;28;8883;-71
2021/03/28 09:25:56;;;;;;;;;1.00;1.00;;;;;;;;5061055;28;8917;-67
2021/03/28 09:28:38;;;;;;;;;3.50;2.00;;;;;;;;5060012;28;9634;-68
2021/03/28 09:31:11;;;;;;;;;1.00;1.00;;;;;;;;5055058;28;8811;-69
2021/03/28 09:33:51;;;;;;;;;2.00;2.00;;;;;;;;5048647;28;8863;-69
2021/03/28 09:36:34;;;;;;;;;4.25;2.00;;;;;;;;5049922;28;9619;-71
2021/03/28 09:39:25;;;;;;;;;2.25;2.25;;;;;;;;5049168;28;8904;-70
2021/03/28 09:42:38;;;;;;;;;4.25;1.00;;;;;;;;5048899;28;9837;-69
2021/03/28 09:45:51;;;;;;;;;2.00;2.00;;;;;;;;5050777;28;8884;-69
2021/03/28 09:48:59;;;;;;;;;1.75;1.75;;;;;;;;5023156;28;8875;-69
2021/03/28 09:51:58;;;;;;;;;1.25;1.00;;;;;;;;5051480;28;8957;-69
2021/03/28 09:55:15;;;;;;;;;1.50;1.50;;;;;;;;5068632;28;8982;-70
2021/03/28 09:57:55;;;;;;;;;2.00;2.00;;;;;;;;5034831;28;8868;-71
2021/03/28 10:00:44;;;;;;;;;1.75;1.75;;;;;;;;5061351;28;8949;-69
2021/03/28 10:03:19;;;;;;;;;1.25;1.25;;;;;;;;5062954;28;8852;-68
2021/03/28 10:05:47;;;;;;;;;1.25;1.25;;;;;;;;5061824;28;8864;-68
2021/03/28 10:08:17;;;;;;;;;0.75;0.75;;;;;;;;5058581;28;8970;-69
2021/03/28 10:11:07;;;;;;;;;0.00;0.00;;;;;;;;5062343;28;8841;-70
2021/03/28 10:14:02;;;;;;;;;0.75;0.75;;;;;;;;5059191;28;8837;-71
2021/03/28 10:16:37;;;;;;;;;1.00;1.00;;;;;;;;5061760;28;9010;-69
2021/03/28 10:19:13;;;;;;;;;1.25;1.00;;;;;;;;5066480;28;9564;-71
2021/03/28 10:21:57;;;;;;;;;0.00;0.00;;;;;;;;5066029;28;8949;-69
2021/03/28 10:24:59;;;;;;;;;0.50;0.25;;;;;;;;5063487;28;9443;-70
2021/03/28 10:28:10;;;;;;;;;1.00;1.00;;;;;;;;5060379;28;8864;-68
2021/03/28 10:30:49;;;;;;;;;3.00;2.00;;;;;;;;5054343;28;8814;-71
2021/03/28 10:33:29;;;;;;;;;0.75;0.75;;;;;;;;5078045;28;8921;-70
2021/03/28 10:36:08;;;;;;;;;2.50;1.00;;;;;;;;5079479;28;9630;-69
2021/03/28 10:38:50;;;;;;;;;5.00;1.75;;;;;;;;5073892;28;9641;-69
2021/03/28 10:41:42;;;;;;;;;1.75;1.75;;;;;;;;5081119;28;9585;-68
2021/03/28 10:44:30;;;;;;;;;1.00;0.75;;;;;;;;5082500;28;8880;-68
2021/03/28 10:47:38;;;;;;;;;1.00;1.00;;;;;;;;5052586;28;8862;-70
2021/03/28 10:50:52;;;;;;;;;1.00;1.00;;;;;;;;5076337;28;8858;-69
2021/03/28 10:53:52;;;;;;;;;1.00;1.00;;;;;;;;5068859;28;8853;-70
2021/03/28 10:56:42;;;;;;;;;3.50;2.00;;;;;;;;5083676;28;9004;-69
2021/03/28 11:00:03;;;;;;;;;1.25;1.25;;;;;;;;5084239;28;8864;-69
2021/03/28 11:03:15;;;;;;;;;2.25;1.00;;;;;;;;5082918;28;10089;-68
2021/03/28 11:06:01;;;;;;;;;0.00;0.00;;;;;;;;5082159;28;8934;-67
2021/03/28 11:08:58;;;;;;;;;2.00;1.50;;;;;;;;5084449;28;8865;-69
2021/03/28 11:11:52;;;;;;;;;1.50;1.00;;;;;;;;5081990;28;8992;-69
2021/03/28 11:14:46;;;;;;;;;2.00;1.00;;;;;;;;5084311;28;8904;-69
2021/03/28 11:17:22;;;;;;;;;1.50;1.50;;;;;;;;5084160;28;9008;-70
2021/03/28 11:20:06;;;;;;;;;1.25;1.00;;;;;;;;5084507;28;8854;-69
2021/03/28 11:22:51;;;;;;;;;0.25;0.25;;;;;;;;5083197;28;8850;-69
2021/03/28 11:25:24;;;;;;;;;1.25;1.25;;;;;;;;5087944;28;8869;-70
2021/03/28 11:28:31;;;;;;;;;1.00;1.00;;;;;;;;5086470;28;8938;-68
2021/03/28 11:31:28;;;;;;;;;0.50;0.50;;;;;;;;5080290;28;8817;-69
2021/03/28 11:34:00;;;;;;;;;2.00;2.00;;;;;;;;5085482;28;8873;-71
2021/03/28 11:36:30;;;;;;;;;0.00;0.00;;;;;;;;5083999;28;9097;-71
2021/03/28 11:39:16;;;;;;;;;1.75;1.75;;;;;;;;5085141;28;9659;-69
2021/03/28 11:42:16;;;;;;;;;1.00;1.00;;;;;;;;5082747;28;9611;-69
2021/03/28 11:45:26;;;;;;;;;1.00;1.00;;;;;;;;5078222;28;8850;-68
2021/03/28 11:47:55;;;;;;;;;0.75;0.50;;;;;;;;5082419;28;8862;-70
2021/03/28 11:50:35;;;;;;;;;1.25;1.25;;;;;;;;5083963;28;8861;-71
2021/03/28 11:53:13;;;;;;;;;1.75;1.75;;;;;;;;5082996;28;8872;-68
2021/03/28 11:55:47;;;;;;;;;2.00;2.00;;;;;;;;5083040;28;8862;-69
2021/03/28 11:58:51;;;;;;;;;1.00;1.00;;;;;;;;5081807;28;8857;-69
2021/03/28 12:01:51;;;;;;;;;2.25;1.00;;;;;;;;5070407;28;8824;-71
2021/03/28 12:04:26;;;;;;;;;1.25;1.25;;;;;;;;5085002;28;8866;-68
2021/03/28 12:07:00;;;;;;;;;1.50;1.50;;;;;;;;5084295;28;8865;-72
2021/03/28 12:09:30;;;;;;;;;2.00;1.00;;;;;;;;5084071;28;8845;-69
2021/03/28 12:12:01;;;;;;;;;1.25;1.25;;;;;;;;5083293;28;8884;-70
2021/03/28 12:14:31;;;;;;;;;1.00;1.00;;;;;;;;5084036;28;9639;-68
2021/03/28 12:17:33;;;;;;;;;1.25;1.25;;;;;;;;5082478;28;8826;-70
2021/03/28 12:20:20;;;;;;;;;3.00;2.00;;;;;;;;5085194;28;8915;-72
2021/03/28 12:23:02;;;;;;;;;0.25;0.25;;;;;;;;5082979;28;8850;-70
2021/03/28 12:25:33;;;;;;;;;1.00;1.00;;;;;;;;5081215;28;8846;-70
2021/03/28 12:28:31;;;;;;;;;1.00;1.00;;;;;;;;5080100;28;8870;-70
2021/03/28 12:31:00;;;;;;;;;1.25;1.00;;;;;;;;5035362;28;8819;-70
2021/03/28 12:33:51;;;;;;;;;3.00;1.25;;;;;;;;5067848;28;8926;-70
2021/03/28 12:36:19;;;;;;;;;0.75;0.75;;;;;;;;5068630;28;9553;-69
2021/03/28 12:38:57;;;;;;;;;2.75;2.00;;;;;;;;5071587;28;8857;-70
2021/03/28 12:41:59;;;;;;;;;1.00;1.00;;;;;;;;5073142;28;9659;-70
2021/03/28 12:44:35;;;;;;;;;1.25;1.25;;;;;;;;5049867;28;8858;-70
2021/03/28 12:47:08;;;;;;;;;3.00;1.00;;;;;;;;5081684;28;9596;-70
2021/03/28 12:49:49;;;;;;;;;0.00;0.00;;;;;;;;5076783;28;8873;-70
2021/03/28 12:52:34;;;;;;;;;3.50;2.00;;;;;;;;5081728;28;9584;-71
2021/03/28 12:55:21;;;;;;;;;2.80;2.00;;;;;;;;5080177;28;8877;-70
2021/03/28 12:57:52;;;;;;;;;1.00;1.00;;;;;;;;5072083;28;8846;-70
2021/03/28 13:00:27;;;;;;;;;1.20;1.00;;;;;;;;5082071;28;8964;-70
2021/03/28 13:02:59;;;;;;;;;0.40;0.40;;;;;;;;5077798;28;8869;-71
2021/03/28 13:05:29;;;;;;;;;2.40;1.00;;;;;;;;5082644;28;9798;-69
2021/03/28 13:07:58;;;;;;;;;2.20;1.00;;;;;;;;5082475;28;9699;-70
2021/03/28 13:10:34;;;;;;;;;1.00;1.00;;;;;;;;5083599;28;9001;-71
2021/03/28 13:13:07;;;;;;;;;2.80;2.00;;;;;;;;5083855;28;8869;-71
2021/03/28 13:15:43;;;;;;;;;3.00;1.00;;;;;;;;5081918;28;9706;-70
2021/03/28 13:18:25;;;;;;;;;0.40;0.40;;;;;;;;5084264;28;8874;-70
2021/03/28 13:20:54;;;;;;;;;0.80;0.80;;;;;;;;5080081;28;9206;-72
2021/03/28 13:23:34;;;;;;;;;1.00;1.00;;;;;;;;5084459;28;8873;-69
2021/03/28 13:26:23;;;;;;;;;1.00;1.00;;;;;;;;5080548;28;8834;-69
2021/03/28 13:29:02;;;;;;;;;3.00;1.80;;;;;;;;5070729;28;8861;-71
2021/03/28 13:31:39;;;;;;;;;1.00;1.00;;;;;;;;5082845;27;9452;-70
2021/03/28 13:34:22;;;;;;;;;2.60;1.40;;;;;;;;5083187;28;8880;-70
2021/03/28 13:37:04;;;;;;;;;1.40;1.40;;;;;;;;5082353;28;9008;-70
2021/03/28 13:39:34;;;;;;;;;1.20;1.20;;;;;;;;5086394;28;8853;-68
2021/03/28 13:42:22;;;;;;;;;0.80;0.20;;;;;;;;5082523;28;8865;-70
2021/03/28 13:44:58;;;;;;;;;1.40;1.40;;;;;;;;5083106;28;8853;-70
2021/03/28 13:47:42;;;;;;;;;1.00;1.00;;;;;;;;5083327;28;9583;-70
2021/03/28 13:50:49;;;;;;;;;3.00;1.80;;;;;;;;5082711;28;9742;-70
2021/03/28 13:53:36;;;;;;;;;1.00;1.00;;;;;;;;5080606;28;8942;-70
2021/03/28 13:56:39;;;;;;;;;1.00;1.00;;;;;;;;5080066;28;8930;-71
2021/03/28 13:59:20;;;;;;;;;1.00;1.00;;;;;;;;5081742;28;8947;-70
2021/03/28 14:01:59;;;;;;;;;0.40;0.40;;;;;;;;5082921;28;8824;-71
2021/03/28 14:04:32;;;;;;;;;2.60;1.00;;;;;;;;5078052;28;8884;-70
2021/03/28 14:07:13;;;;;;;;;1.80;1.80;;;;;;;;5082990;28;9639;-69
2021/03/28 14:09:43;;;;;;;;;2.00;1.00;;;;;;;;5081895;28;8854;-71
2021/03/28 14:12:21;;;;;;;;;3.60;2.00;;;;;;;;5082204;28;8897;-72
2021/03/28 14:14:50;;;;;;;;;1.00;1.00;;;;;;;;5081873;28;8857;-72
2021/03/28 14:17:26;;;;;;;;;1.00;1.00;;;;;;;;5082567;28;8869;-70
2021/03/28 14:20:13;;;;;;;;;3.40;2.60;;;;;;;;5083645;28;8858;-72
2021/03/28 14:22:44;;;;;;;;;1.60;1.60;;;;;;;;5081359;28;8858;-70
2021/03/28 14:25:15;;;;;;;;;2.20;2.20;;;;;;;;5082074;28;10184;-70
2021/03/28 14:27:43;;;;;;;;;1.40;1.40;;;;;;;;5083355;28;8866;-69
2021/03/28 14:30:18;;;;;;;;;2.40;2.00;;;;;;;;5078828;28;8862;-70
2021/03/28 14:32:46;;;;;;;;;2.00;2.00;;;;;;;;5079300;28;8961;-70
2021/03/28 14:35:34;;;;;;;;;1.80;1.00;;;;;;;;5077095;28;8861;-70
2021/03/28 14:38:43;;;;;;;;;1.00;1.00;;;;;;;;5081791;28;8868;-70
2021/03/28 14:41:25;;;;;;;;;2.60;0.80;;;;;;;;5080417;28;8883;-71
2021/03/28 14:44:31;;;;;;;;;0.20;0.20;;;;;;;;5078067;28;8861;-72
2021/03/28 14:47:05;;;;;;;;;2.60;2.60;;;;;;;;5081227;28;8880;-70
2021/03/28 14:49:38;;;;;;;;;1.00;1.00;;;;;;;;5082019;28;8838;-71
2021/03/28 14:52:35;;;;;;;;;1.00;1.00;;;;;;;;5081875;28;8864;-69
2021/03/28 14:55:11;;;;;;;;;1.40;1.00;;;;;;;;5081069;28;8871;-74
2021/03/28 14:57:43;;;;;;;;;2.20;1.00;;;;;;;;5081493;28;9651;-71
2021/03/28 15:00:21;;;;;;;;;1.40;0.00;;;;;;;;5080522;27;9634;-72
2021/03/28 15:03:09;;;;;;;;;2.00;2.00;;;;;;;;5082098;28;8883;-71
2021/03/28 15:06:03;;;;;;;;;0.80;0.80;;;;;;;;5084252;28;8864;-71
2021/03/28 15:08:40;;;;;;;;;1.00;1.00;;;;;;;;5084356;28;8885;-74
2021/03/28 15:11:13;;;;;;;;;1.20;1.20;;;;;;;;5084216;28;8884;-72
2021/03/28 15:13:51;;;;;;;;;3.60;2.00;;;;;;;;5085095;28;8965;-72
2021/03/28 15:16:32;;;;;;;;;0.60;0.60;;;;;;;;5077123;28;8978;-71
2021/03/28 15:19:23;;;;;;;;;1.00;1.00;;;;;;;;5085612;28;9447;-71
2021/03/28 15:22:05;;;;;;;;;1.00;1.00;;;;;;;;5083680;28;9747;-71
2021/03/28 15:24:39;;;;;;;;;1.80;1.00;;;;;;;;5082287;28;9576;-73
2021/03/28 15:27:15;;;;;;;;;2.00;2.00;;;;;;;;5085201;28;9443;-70
2021/03/28 15:29:47;;;;;;;;;1.60;1.60;;;;;;;;5082932;28;8865;-73
2021/03/28 15:32:41;;;;;;;;;0.80;0.80;;;;;;;;5085203;28;8821;-72
2021/03/28 15:35:28;;;;;;;;;2.20;1.00;;;;;;;;5056365;28;8877;-72
2021/03/28 15:38:27;;;;;;;;;2.40;1.40;;;;;;;;5081875;28;8885;-72
2021/03/28 15:40:57;;;;;;;;;2.00;2.00;;;;;;;;5079328;28;8868;-74
2021/03/28 15:43:41;;;;;;;;;1.00;1.00;;;;;;;;5086546;28;8853;-70
2021/03/28 15:46:15;;;;;;;;;1.00;1.00;;;;;;;;5082296;28;8972;-70
2021/03/28 15:49:15;;;;;;;;;2.00;0.20;;;;;;;;5083341;28;8849;-70
2021/03/28 15:52:01;;;;;;;;;3.00;1.00;;;;;;;;5056939;28;8854;-70
2021/03/28 15:54:38;;;;;;;;;1.00;1.00;;;;;;;;5083568;28;8885;-69
2021/03/28 15:57:17;;;;;;;;;1.00;1.00;;;;;;;;5080575;28;8905;-71
2021/03/28 16:00:01;;;;;;;;;0.40;0.40;;;;;;;;5084349;28;8868;-70
2021/03/28 16:02:33;;;;;;;;;0.20;0.20;;;;;;;;5078133;28;8814;-71
2021/03/28 16:05:27;;;;;;;;;2.00;2.00;;;;;;;;5083613;28;8874;-72
2021/03/28 16:08:26;;;;;;;;;1.00;1.00;;;;;;;;5080092;28;8885;-71
2021/03/28 16:11:11;;;;;;;;;1.40;1.20;;;;;;;;5062269;28;8858;-71
2021/03/28 16:14:10;;;;;;;;;1.40;1.40;;;;;;;;5084248;28;8881;-69
2021/03/28 16:17:19;;;;;;;;;1.00;1.00;;;;;;;;5082217;28;8946;-72
2021/03/28 16:20:04;;;;;;;;;1.20;1.20;;;;;;;;5040155;28;8864;-72
2021/03/28 16:22:39;;;;;;;;;1.20;1.20;;;;;;;;5076985;28;8984;-72
2021/03/28 16:25:14;;;;;;;;;1.80;1.00;;;;;;;;5083282;28;9008;-72
2021/03/28 16:27:48;;;;;;;;;1.80;1.80;;;;;;;;5082175;28;8900;-71
2021/03/28 16:30:27;;;;;;;;;0.80;0.80;;;;;;;;5079923;28;8861;-73
2021/03/28 16:33:14;;;;;;;;;2.00;0.20;;;;;;;;5080015;28;8857;-72
2021/03/28 16:35:51;;;;;;;;;1.00;1.00;;;;;;;;5080382;28;8845;-70
2021/03/28 16:38:50;;;;;;;;;1.00;1.00;;;;;;;;5074807;28;8868;-71
2021/03/28 16:42:06;;;;;;;;;2.00;1.40;;;;;;;;5068195;28;8858;-69